sensor_id;sensor_type;location;lat;lon;timestamp;P1;durP1;ratioP1;P2;durP2;ratioP2
24567;SDS011;12731;52.182;8.716;2023-02-28T00:00:48;10.85;;;7.03;;
24567;SDS011;12731;52.182;8.716;2023-02-28T00:03:15;13.10;;;7.18;;
24567;SDS011;12731;52.182;8.716;2023-02-28T00:05:41;11.25;;;7.90;;
24567;SDS011;12731;52.182;8.716;2023-02-28T00:08:08;13.80;;;8.55;;
24567;SDS011;12731;52.182;8.716;2023-02-28T00:10:35;12.38;;;8.13;;
24567;SDS011;12731;52.182;8.716;2023-02-28T00:13:03;14.27;;;8.35;;
24567;SDS011;12731;52.182;8.716;2023-02-28T00:15:31;14.30;;;8.98;;
24567;SDS011;12731;52.182;8.716;2023-02-28T00:17:57;14.90;;;9.30;;
24567;SDS011;12731;52.182;8.716;2023-02-28T00:20:24;15.07;;;9.63;;
24567;SDS011;12731;52.182;8.716;2023-02-28T00:22:51;15.15;;;9.25;;
24567;SDS011;12731;52.182;8.716;2023-02-28T00:25:20;12.30;;;8.60;;
24567;SDS011;12731;52.182;8.716;2023-02-28T00:27:48;15.10;;;9.07;;
24567;SDS011;12731;52.182;8.716;2023-02-28T00:30:16;14.43;;;8.80;;
24567;SDS011;12731;52.182;8.716;2023-02-28T00:32:44;12.20;;;8.95;;
24567;SDS011;12731;52.182;8.716;2023-02-28T00:35:10;15.82;;;9.32;;
24567;SDS011;12731;52.182;8.716;2023-02-28T00:37:37;13.57;;;8.23;;
24567;SDS011;12731;52.182;8.716;2023-02-28T00:40:04;11.05;;;8.35;;
24567;SDS011;12731;52.182;8.716;2023-02-28T00:42:35;13.70;;;8.57;;
24567;SDS011;12731;52.182;8.716;2023-02-28T00:45:02;14.13;;;7.65;;
24567;SDS011;12731;52.182;8.716;2023-02-28T00:47:30;13.02;;;7.95;;
24567;SDS011;12731;52.182;8.716;2023-02-28T00:49:57;12.18;;;8.10;;
24567;SDS011;12731;52.182;8.716;2023-02-28T00:52:24;12.13;;;7.47;;
24567;SDS011;12731;52.182;8.716;2023-02-28T00:54:50;9.50;;;6.82;;
24567;SDS011;12731;52.182;8.716;2023-02-28T00:57:17;9.45;;;6.40;;
24567;SDS011;12731;52.182;8.716;2023-02-28T00:59:43;10.95;;;6.40;;
24567;SDS011;12731;52.182;8.716;2023-02-28T01:02:10;9.35;;;6.03;;
24567;SDS011;12731;52.182;8.716;2023-02-28T01:04:36;9.02;;;6.00;;
24567;SDS011;12731;52.182;8.716;2023-02-28T01:07:02;9.57;;;5.53;;
24567;SDS011;12731;52.182;8.716;2023-02-28T01:09:29;12.77;;;5.47;;
24567;SDS011;12731;52.182;8.716;2023-02-28T01:11:55;9.57;;;5.68;;
24567;SDS011;12731;52.182;8.716;2023-02-28T01:14:22;7.18;;;4.75;;
24567;SDS011;12731;52.182;8.716;2023-02-28T01:16:48;8.25;;;4.80;;
24567;SDS011;12731;52.182;8.716;2023-02-28T01:19:15;9.38;;;4.40;;
24567;SDS011;12731;52.182;8.716;2023-02-28T01:21:41;8.98;;;4.50;;
24567;SDS011;12731;52.182;8.716;2023-02-28T01:24:08;7.35;;;4.53;;
24567;SDS011;12731;52.182;8.716;2023-02-28T01:26:34;6.47;;;4.75;;
24567;SDS011;12731;52.182;8.716;2023-02-28T01:29:01;7.18;;;4.43;;
24567;SDS011;12731;52.182;8.716;2023-02-28T01:31:28;6.40;;;3.97;;
24567;SDS011;12731;52.182;8.716;2023-02-28T01:33:55;5.70;;;3.53;;
24567;SDS011;12731;52.182;8.716;2023-02-28T01:36:22;6.68;;;3.80;;
24567;SDS011;12731;52.182;8.716;2023-02-28T01:38:49;6.82;;;4.57;;
24567;SDS011;12731;52.182;8.716;2023-02-28T01:41:20;6.75;;;3.92;;
24567;SDS011;12731;52.182;8.716;2023-02-28T01:46:14;7.35;;;4.65;;
24567;SDS011;12731;52.182;8.716;2023-02-28T01:48:42;7.13;;;4.38;;
24567;SDS011;12731;52.182;8.716;2023-02-28T01:51:15;5.45;;;4.50;;
24567;SDS011;12731;52.182;8.716;2023-02-28T01:53:53;6.43;;;4.07;;
24567;SDS011;12731;52.182;8.716;2023-02-28T01:56:30;7.20;;;4.13;;
24567;SDS011;12731;52.182;8.716;2023-02-28T01:58:59;6.43;;;3.85;;
24567;SDS011;12731;52.182;8.716;2023-02-28T02:01:26;6.25;;;4.15;;
24567;SDS011;12731;52.182;8.716;2023-02-28T02:03:57;7.38;;;4.45;;
24567;SDS011;12731;52.182;8.716;2023-02-28T02:06:27;9.30;;;4.53;;
24567;SDS011;12731;52.182;8.716;2023-02-28T02:08:58;7.65;;;4.28;;
24567;SDS011;12731;52.182;8.716;2023-02-28T02:11:25;7.22;;;4.82;;
24567;SDS011;12731;52.182;8.716;2023-02-28T02:22:37;7.50;;;4.75;;
24567;SDS011;12731;52.182;8.716;2023-02-28T02:25:43;5.65;;;4.28;;
24567;SDS011;12731;52.182;8.716;2023-02-28T02:36:38;7.85;;;4.20;;
24567;SDS011;12731;52.182;8.716;2023-02-28T02:41:40;7.75;;;4.60;;
24567;SDS011;12731;52.182;8.716;2023-02-28T02:47:16;6.00;;;4.05;;
24567;SDS011;12731;52.182;8.716;2023-02-28T02:49:48;7.13;;;4.53;;
24567;SDS011;12731;52.182;8.716;2023-02-28T02:52:18;5.97;;;3.72;;
24567;SDS011;12731;52.182;8.716;2023-02-28T02:54:48;6.70;;;3.85;;
24567;SDS011;12731;52.182;8.716;2023-02-28T02:57:26;7.70;;;3.90;;
24567;SDS011;12731;52.182;8.716;2023-02-28T02:59:55;7.05;;;3.25;;
24567;SDS011;12731;52.182;8.716;2023-02-28T03:02:22;5.40;;;3.40;;
24567;SDS011;12731;52.182;8.716;2023-02-28T03:04:53;7.28;;;3.25;;
24567;SDS011;12731;52.182;8.716;2023-02-28T03:07:21;6.30;;;3.05;;
24567;SDS011;12731;52.182;8.716;2023-02-28T03:09:51;5.45;;;3.45;;
24567;SDS011;12731;52.182;8.716;2023-02-28T03:12:18;5.43;;;3.35;;
24567;SDS011;12731;52.182;8.716;2023-02-28T03:14:56;5.32;;;3.40;;
24567;SDS011;12731;52.182;8.716;2023-02-28T03:20:23;8.25;;;4.07;;
24567;SDS011;12731;52.182;8.716;2023-02-28T03:23:21;6.63;;;3.92;;
24567;SDS011;12731;52.182;8.716;2023-02-28T03:25:57;8.85;;;4.00;;
24567;SDS011;12731;52.182;8.716;2023-02-28T03:37:16;5.85;;;3.20;;
24567;SDS011;12731;52.182;8.716;2023-02-28T03:39:51;5.00;;;3.25;;
24567;SDS011;12731;52.182;8.716;2023-02-28T03:42:22;5.50;;;3.90;;
24567;SDS011;12731;52.182;8.716;2023-02-28T03:44:53;6.57;;;3.70;;
24567;SDS011;12731;52.182;8.716;2023-02-28T03:50:18;6.13;;;3.95;;
24567;SDS011;12731;52.182;8.716;2023-02-28T03:52:53;5.28;;;3.85;;
24567;SDS011;12731;52.182;8.716;2023-02-28T03:55:28;6.18;;;3.92;;
24567;SDS011;12731;52.182;8.716;2023-02-28T03:58:00;6.72;;;4.13;;
24567;SDS011;12731;52.182;8.716;2023-02-28T04:00:31;6.23;;;3.80;;
24567;SDS011;12731;52.182;8.716;2023-02-28T04:03:00;8.75;;;4.03;;
24567;SDS011;12731;52.182;8.716;2023-02-28T04:05:27;7.30;;;4.32;;
24567;SDS011;12731;52.182;8.716;2023-02-28T04:07:53;5.05;;;3.50;;
24567;SDS011;12731;52.182;8.716;2023-02-28T04:10:20;6.28;;;3.47;;
24567;SDS011;12731;52.182;8.716;2023-02-28T04:12:46;5.72;;;3.85;;
24567;SDS011;12731;52.182;8.716;2023-02-28T04:15:13;5.40;;;3.25;;
24567;SDS011;12731;52.182;8.716;2023-02-28T04:17:39;4.72;;;3.60;;
24567;SDS011;12731;52.182;8.716;2023-02-28T04:20:06;5.57;;;3.17;;
24567;SDS011;12731;52.182;8.716;2023-02-28T04:22:36;5.57;;;3.35;;
24567;SDS011;12731;52.182;8.716;2023-02-28T04:25:03;4.25;;;3.08;;
24567;SDS011;12731;52.182;8.716;2023-02-28T04:27:31;8.38;;;4.10;;
24567;SDS011;12731;52.182;8.716;2023-02-28T04:29:58;5.70;;;3.50;;
24567;SDS011;12731;52.182;8.716;2023-02-28T04:32:24;5.78;;;3.70;;
24567;SDS011;12731;52.182;8.716;2023-02-28T04:34:51;6.88;;;3.70;;
24567;SDS011;12731;52.182;8.716;2023-02-28T04:37:17;5.43;;;3.85;;
24567;SDS011;12731;52.182;8.716;2023-02-28T04:39:44;7.55;;;4.38;;
24567;SDS011;12731;52.182;8.716;2023-02-28T04:42:10;9.40;;;5.72;;
24567;SDS011;12731;52.182;8.716;2023-02-28T04:44:37;8.77;;;5.55;;
24567;SDS011;12731;52.182;8.716;2023-02-28T04:47:04;12.50;;;6.07;;
24567;SDS011;12731;52.182;8.716;2023-02-28T04:49:31;8.18;;;5.10;;
24567;SDS011;12731;52.182;8.716;2023-02-28T04:51:58;8.20;;;4.57;;
24567;SDS011;12731;52.182;8.716;2023-02-28T04:54:24;7.32;;;4.57;;
24567;SDS011;12731;52.182;8.716;2023-02-28T04:56:50;7.35;;;4.55;;
24567;SDS011;12731;52.182;8.716;2023-02-28T04:59:17;8.73;;;4.80;;
24567;SDS011;12731;52.182;8.716;2023-02-28T05:01:47;13.15;;;5.22;;
24567;SDS011;12731;52.182;8.716;2023-02-28T05:04:14;10.18;;;4.47;;
24567;SDS011;12731;52.182;8.716;2023-02-28T05:06:40;7.80;;;4.95;;
24567;SDS011;12731;52.182;8.716;2023-02-28T05:09:07;10.88;;;6.47;;
24567;SDS011;12731;52.182;8.716;2023-02-28T05:11:34;14.95;;;8.38;;
24567;SDS011;12731;52.182;8.716;2023-02-28T05:14:02;16.88;;;9.70;;
24567;SDS011;12731;52.182;8.716;2023-02-28T05:16:30;15.80;;;9.38;;
24567;SDS011;12731;52.182;8.716;2023-02-28T05:18:57;15.15;;;9.38;;
24567;SDS011;12731;52.182;8.716;2023-02-28T05:21:28;14.45;;;8.32;;
24567;SDS011;12731;52.182;8.716;2023-02-28T05:24:15;12.55;;;6.63;;
24567;SDS011;12731;52.182;8.716;2023-02-28T05:26:42;11.38;;;6.15;;
24567;SDS011;12731;52.182;8.716;2023-02-28T05:29:09;7.90;;;5.38;;
24567;SDS011;12731;52.182;8.716;2023-02-28T05:31:36;8.57;;;5.35;;
24567;SDS011;12731;52.182;8.716;2023-02-28T05:34:02;8.85;;;5.13;;
24567;SDS011;12731;52.182;8.716;2023-02-28T05:36:30;8.80;;;5.35;;
24567;SDS011;12731;52.182;8.716;2023-02-28T05:38:56;9.70;;;5.53;;
24567;SDS011;12731;52.182;8.716;2023-02-28T05:41:23;7.15;;;5.05;;
24567;SDS011;12731;52.182;8.716;2023-02-28T05:43:49;8.32;;;5.70;;
24567;SDS011;12731;52.182;8.716;2023-02-28T05:46:16;7.32;;;5.82;;
24567;SDS011;12731;52.182;8.716;2023-02-28T05:48:42;7.65;;;5.55;;
24567;SDS011;12731;52.182;8.716;2023-02-28T05:51:12;9.45;;;6.30;;
24567;SDS011;12731;52.182;8.716;2023-02-28T05:53:39;10.55;;;6.60;;
24567;SDS011;12731;52.182;8.716;2023-02-28T05:56:05;7.93;;;6.47;;
24567;SDS011;12731;52.182;8.716;2023-02-28T05:58:32;8.95;;;7.35;;
24567;SDS011;12731;52.182;8.716;2023-02-28T06:00:59;9.73;;;7.18;;
24567;SDS011;12731;52.182;8.716;2023-02-28T06:03:27;9.07;;;6.55;;
24567;SDS011;12731;52.182;8.716;2023-02-28T06:05:53;7.63;;;6.55;;
24567;SDS011;12731;52.182;8.716;2023-02-28T06:08:20;10.13;;;6.95;;
24567;SDS011;12731;52.182;8.716;2023-02-28T06:10:46;9.65;;;6.95;;
24567;SDS011;12731;52.182;8.716;2023-02-28T06:13:13;11.43;;;6.85;;
24567;SDS011;12731;52.182;8.716;2023-02-28T06:15:40;8.32;;;6.07;;
24567;SDS011;12731;52.182;8.716;2023-02-28T06:18:06;10.00;;;6.30;;
24567;SDS011;12731;52.182;8.716;2023-02-28T06:20:33;6.68;;;5.70;;
24567;SDS011;12731;52.182;8.716;2023-02-28T06:23:00;8.32;;;6.28;;
24567;SDS011;12731;52.182;8.716;2023-02-28T06:25:27;7.78;;;6.20;;
24567;SDS011;12731;52.182;8.716;2023-02-28T06:27:54;8.55;;;5.93;;
24567;SDS011;12731;52.182;8.716;2023-02-28T06:30:21;7.32;;;5.93;;
24567;SDS011;12731;52.182;8.716;2023-02-28T06:32:51;7.63;;;5.78;;
24567;SDS011;12731;52.182;8.716;2023-02-28T06:35:18;8.02;;;5.55;;
24567;SDS011;12731;52.182;8.716;2023-02-28T06:37:44;9.30;;;5.90;;
24567;SDS011;12731;52.182;8.716;2023-02-28T06:40:11;8.77;;;6.30;;
24567;SDS011;12731;52.182;8.716;2023-02-28T06:42:39;10.27;;;6.50;;
24567;SDS011;12731;52.182;8.716;2023-02-28T06:45:05;8.55;;;5.85;;
24567;SDS011;12731;52.182;8.716;2023-02-28T06:47:36;9.43;;;7.10;;
24567;SDS011;12731;52.182;8.716;2023-02-28T06:50:03;10.50;;;6.80;;
24567;SDS011;12731;52.182;8.716;2023-02-28T06:52:31;10.73;;;7.25;;
24567;SDS011;12731;52.182;8.716;2023-02-28T06:54:57;9.60;;;6.63;;
24567;SDS011;12731;52.182;8.716;2023-02-28T06:57:27;12.48;;;7.03;;
24567;SDS011;12731;52.182;8.716;2023-02-28T07:00:04;10.18;;;6.63;;
24567;SDS011;12731;52.182;8.716;2023-02-28T07:02:37;9.38;;;6.70;;
24567;SDS011;12731;52.182;8.716;2023-02-28T07:05:04;8.80;;;6.28;;
24567;SDS011;12731;52.182;8.716;2023-02-28T07:07:31;8.35;;;6.70;;
24567;SDS011;12731;52.182;8.716;2023-02-28T07:09:58;9.45;;;7.35;;
24567;SDS011;12731;52.182;8.716;2023-02-28T07:12:25;10.50;;;6.88;;
24567;SDS011;12731;52.182;8.716;2023-02-28T07:14:51;9.52;;;6.97;;
24567;SDS011;12731;52.182;8.716;2023-02-28T07:17:17;9.15;;;6.85;;
24567;SDS011;12731;52.182;8.716;2023-02-28T07:19:44;9.38;;;6.85;;
24567;SDS011;12731;52.182;8.716;2023-02-28T07:22:10;12.35;;;7.63;;
24567;SDS011;12731;52.182;8.716;2023-02-28T07:24:39;10.10;;;7.60;;
24567;SDS011;12731;52.182;8.716;2023-02-28T07:27:06;8.93;;;6.55;;
24567;SDS011;12731;52.182;8.716;2023-02-28T07:29:32;11.45;;;6.78;;
24567;SDS011;12731;52.182;8.716;2023-02-28T07:31:59;11.32;;;6.38;;
24567;SDS011;12731;52.182;8.716;2023-02-28T07:34:25;8.98;;;6.30;;
24567;SDS011;12731;52.182;8.716;2023-02-28T07:36:52;8.05;;;6.03;;
24567;SDS011;12731;52.182;8.716;2023-02-28T07:39:20;6.82;;;4.93;;
24567;SDS011;12731;52.182;8.716;2023-02-28T07:41:47;7.85;;;4.30;;
24567;SDS011;12731;52.182;8.716;2023-02-28T07:44:13;6.20;;;4.43;;
24567;SDS011;12731;52.182;8.716;2023-02-28T07:46:40;7.25;;;4.45;;
24567;SDS011;12731;52.182;8.716;2023-02-28T07:49:06;6.32;;;4.13;;
24567;SDS011;12731;52.182;8.716;2023-02-28T07:51:33;5.55;;;3.47;;
24567;SDS011;12731;52.182;8.716;2023-02-28T07:53:59;6.40;;;4.30;;
24567;SDS011;12731;52.182;8.716;2023-02-28T07:56:26;6.43;;;3.67;;
24567;SDS011;12731;52.182;8.716;2023-02-28T07:58:53;6.90;;;3.88;;
24567;SDS011;12731;52.182;8.716;2023-02-28T08:01:20;4.35;;;3.38;;
24567;SDS011;12731;52.182;8.716;2023-02-28T08:03:47;6.40;;;4.20;;
24567;SDS011;12731;52.182;8.716;2023-02-28T08:06:17;6.15;;;4.13;;
24567;SDS011;12731;52.182;8.716;2023-02-28T08:08:45;7.20;;;3.80;;
24567;SDS011;12731;52.182;8.716;2023-02-28T08:11:12;5.07;;;3.97;;
24567;SDS011;12731;52.182;8.716;2023-02-28T08:13:38;7.03;;;3.70;;
24567;SDS011;12731;52.182;8.716;2023-02-28T08:16:05;9.43;;;3.80;;
24567;SDS011;12731;52.182;8.716;2023-02-28T08:18:32;9.95;;;4.20;;
24567;SDS011;12731;52.182;8.716;2023-02-28T08:20:58;5.70;;;3.65;;
24567;SDS011;12731;52.182;8.716;2023-02-28T08:23:25;7.00;;;3.97;;
24567;SDS011;12731;52.182;8.716;2023-02-28T08:25:55;12.15;;;6.68;;
24567;SDS011;12731;52.182;8.716;2023-02-28T08:28:22;13.45;;;7.47;;
24567;SDS011;12731;52.182;8.716;2023-02-28T08:30:52;11.38;;;7.95;;
24567;SDS011;12731;52.182;8.716;2023-02-28T08:33:18;12.38;;;7.82;;
24567;SDS011;12731;52.182;8.716;2023-02-28T08:35:45;10.77;;;7.75;;
24567;SDS011;12731;52.182;8.716;2023-02-28T08:38:11;11.13;;;7.50;;
24567;SDS011;12731;52.182;8.716;2023-02-28T08:40:38;14.13;;;7.53;;
24567;SDS011;12731;52.182;8.716;2023-02-28T08:43:04;11.32;;;5.93;;
24567;SDS011;12731;52.182;8.716;2023-02-28T08:45:31;10.68;;;5.95;;
24567;SDS011;12731;52.182;8.716;2023-02-28T08:47:58;9.68;;;6.75;;
24567;SDS011;12731;52.182;8.716;2023-02-28T08:50:24;11.68;;;6.28;;
24567;SDS011;12731;52.182;8.716;2023-02-28T08:52:51;7.38;;;5.47;;
24567;SDS011;12731;52.182;8.716;2023-02-28T08:55:17;8.88;;;5.53;;
24567;SDS011;12731;52.182;8.716;2023-02-28T08:57:44;11.85;;;5.80;;
24567;SDS011;12731;52.182;8.716;2023-02-28T09:00:11;8.73;;;5.82;;
24567;SDS011;12731;52.182;8.716;2023-02-28T09:02:40;9.05;;;5.60;;
24567;SDS011;12731;52.182;8.716;2023-02-28T09:05:09;6.05;;;4.57;;
24567;SDS011;12731;52.182;8.716;2023-02-28T09:07:36;6.85;;;4.63;;
24567;SDS011;12731;52.182;8.716;2023-02-28T09:10:03;8.90;;;4.78;;
24567;SDS011;12731;52.182;8.716;2023-02-28T09:12:31;6.75;;;4.22;;
24567;SDS011;12731;52.182;8.716;2023-02-28T09:14:59;8.50;;;4.68;;
24567;SDS011;12731;52.182;8.716;2023-02-28T09:17:26;7.20;;;4.60;;
24567;SDS011;12731;52.182;8.716;2023-02-28T09:19:56;8.30;;;4.78;;
24567;SDS011;12731;52.182;8.716;2023-02-28T09:22:23;8.43;;;4.57;;
24567;SDS011;12731;52.182;8.716;2023-02-28T09:24:49;8.10;;;4.70;;
24567;SDS011;12731;52.182;8.716;2023-02-28T09:27:19;7.50;;;4.55;;
24567;SDS011;12731;52.182;8.716;2023-02-28T09:29:45;7.38;;;4.50;;
24567;SDS011;12731;52.182;8.716;2023-02-28T09:32:12;7.75;;;4.38;;
24567;SDS011;12731;52.182;8.716;2023-02-28T09:34:39;7.78;;;3.97;;
24567;SDS011;12731;52.182;8.716;2023-02-28T09:37:05;5.47;;;3.78;;
24567;SDS011;12731;52.182;8.716;2023-02-28T09:39:34;4.95;;;3.38;;
24567;SDS011;12731;52.182;8.716;2023-02-28T09:42:04;4.05;;;3.15;;
24567;SDS011;12731;52.182;8.716;2023-02-28T09:44:34;5.57;;;3.20;;
24567;SDS011;12731;52.182;8.716;2023-02-28T09:47:08;5.28;;;3.30;;
24567;SDS011;12731;52.182;8.716;2023-02-28T09:49:40;3.95;;;2.92;;
24567;SDS011;12731;52.182;8.716;2023-02-28T09:52:30;3.90;;;2.70;;
24567;SDS011;12731;52.182;8.716;2023-02-28T09:54:59;4.72;;;3.03;;
24567;SDS011;12731;52.182;8.716;2023-02-28T09:57:33;3.28;;;2.40;;
24567;SDS011;12731;52.182;8.716;2023-02-28T10:05:27;4.55;;;2.88;;
24567;SDS011;12731;52.182;8.716;2023-02-28T10:10:45;4.95;;;2.40;;
24567;SDS011;12731;52.182;8.716;2023-02-28T10:13:19;3.88;;;2.00;;
24567;SDS011;12731;52.182;8.716;2023-02-28T10:15:50;3.58;;;2.28;;
24567;SDS011;12731;52.182;8.716;2023-02-28T10:18:21;5.50;;;2.13;;
24567;SDS011;12731;52.182;8.716;2023-02-28T10:20:50;2.28;;;1.70;;
24567;SDS011;12731;52.182;8.716;2023-02-28T10:23:36;2.78;;;2.05;;
24567;SDS011;12731;52.182;8.716;2023-02-28T10:26:11;3.53;;;2.25;;
24567;SDS011;12731;52.182;8.716;2023-02-28T10:28:39;3.38;;;2.40;;
24567;SDS011;12731;52.182;8.716;2023-02-28T10:31:06;4.85;;;2.40;;
24567;SDS011;12731;52.182;8.716;2023-02-28T10:33:37;4.82;;;2.88;;
24567;SDS011;12731;52.182;8.716;2023-02-28T10:36:04;3.72;;;2.40;;
24567;SDS011;12731;52.182;8.716;2023-02-28T10:38:36;4.75;;;2.75;;
24567;SDS011;12731;52.182;8.716;2023-02-28T10:43:35;3.03;;;2.30;;
24567;SDS011;12731;52.182;8.716;2023-02-28T10:46:13;3.55;;;2.38;;
24567;SDS011;12731;52.182;8.716;2023-02-28T10:49:03;2.30;;;1.90;;
24567;SDS011;12731;52.182;8.716;2023-02-28T10:51:39;5.03;;;2.40;;
24567;SDS011;12731;52.182;8.716;2023-02-28T10:54:18;4.35;;;2.28;;
24567;SDS011;12731;52.182;8.716;2023-02-28T10:57:05;4.20;;;2.30;;
24567;SDS011;12731;52.182;8.716;2023-02-28T10:59:43;2.95;;;2.00;;
24567;SDS011;12731;52.182;8.716;2023-02-28T11:08:31;5.05;;;2.40;;
24567;SDS011;12731;52.182;8.716;2023-02-28T11:10:43;3.53;;;1.90;;
24567;SDS011;12731;52.182;8.716;2023-02-28T11:13:17;3.67;;;2.25;;
24567;SDS011;12731;52.182;8.716;2023-02-28T11:15:56;4.18;;;2.05;;
24567;SDS011;12731;52.182;8.716;2023-02-28T11:18:30;4.30;;;2.30;;
24567;SDS011;12731;52.182;8.716;2023-02-28T11:21:02;3.78;;;2.40;;
24567;SDS011;12731;52.182;8.716;2023-02-28T11:23:30;2.80;;;2.10;;
24567;SDS011;12731;52.182;8.716;2023-02-28T11:25:58;4.68;;;2.20;;
24567;SDS011;12731;52.182;8.716;2023-02-28T11:28:34;2.65;;;1.80;;
24567;SDS011;12731;52.182;8.716;2023-02-28T11:33:42;2.97;;;1.92;;
24567;SDS011;12731;52.182;8.716;2023-02-28T11:36:12;3.13;;;2.05;;
24567;SDS011;12731;52.182;8.716;2023-02-28T11:38:47;4.45;;;1.95;;
24567;SDS011;12731;52.182;8.716;2023-02-28T11:41:21;3.78;;;2.35;;
24567;SDS011;12731;52.182;8.716;2023-02-28T11:44:00;2.20;;;1.75;;
24567;SDS011;12731;52.182;8.716;2023-02-28T11:47:02;3.55;;;1.85;;
24567;SDS011;12731;52.182;8.716;2023-02-28T11:49:28;3.45;;;1.67;;
24567;SDS011;12731;52.182;8.716;2023-02-28T11:54:59;2.85;;;1.90;;
24567;SDS011;12731;52.182;8.716;2023-02-28T12:00:30;2.72;;;2.00;;
24567;SDS011;12731;52.182;8.716;2023-02-28T12:03:10;1.48;;;1.33;;
24567;SDS011;12731;52.182;8.716;2023-02-28T12:05:54;2.17;;;1.73;;
24567;SDS011;12731;52.182;8.716;2023-02-28T12:11:54;3.37;;;1.53;;
24567;SDS011;12731;52.182;8.716;2023-02-28T12:17:06;2.25;;;1.67;;
24567;SDS011;12731;52.182;8.716;2023-02-28T12:20:01;3.65;;;1.60;;
24567;SDS011;12731;52.182;8.716;2023-02-28T12:22:31;2.65;;;1.42;;
24567;SDS011;12731;52.182;8.716;2023-02-28T12:25:05;3.88;;;1.63;;
24567;SDS011;12731;52.182;8.716;2023-02-28T12:27:44;2.22;;;1.55;;
24567;SDS011;12731;52.182;8.716;2023-02-28T12:30:22;2.10;;;1.45;;
24567;SDS011;12731;52.182;8.716;2023-02-28T12:32:56;3.78;;;1.60;;
24567;SDS011;12731;52.182;8.716;2023-02-28T12:35:34;2.88;;;1.38;;
24567;SDS011;12731;52.182;8.716;2023-02-28T12:38:15;3.83;;;1.88;;
24567;SDS011;12731;52.182;8.716;2023-02-28T12:40:55;4.15;;;2.03;;
24567;SDS011;12731;52.182;8.716;2023-02-28T12:43:25;3.58;;;1.60;;
24567;SDS011;12731;52.182;8.716;2023-02-28T12:46:09;2.90;;;1.63;;
24567;SDS011;12731;52.182;8.716;2023-02-28T12:51:09;2.20;;;1.33;;
24567;SDS011;12731;52.182;8.716;2023-02-28T12:53:44;3.60;;;1.52;;
24567;SDS011;12731;52.182;8.716;2023-02-28T12:56:53;3.38;;;1.95;;
24567;SDS011;12731;52.182;8.716;2023-02-28T12:59:15;5.60;;;1.75;;
24567;SDS011;12731;52.182;8.716;2023-02-28T13:10:39;5.00;;;1.88;;
24567;SDS011;12731;52.182;8.716;2023-02-28T13:13:13;3.60;;;1.75;;
24567;SDS011;12731;52.182;8.716;2023-02-28T13:15:41;3.35;;;1.77;;
24567;SDS011;12731;52.182;8.716;2023-02-28T13:18:30;3.55;;;1.50;;
24567;SDS011;12731;52.182;8.716;2023-02-28T13:21:23;3.42;;;1.83;;
24567;SDS011;12731;52.182;8.716;2023-02-28T13:26:23;3.65;;;2.08;;
24567;SDS011;12731;52.182;8.716;2023-02-28T13:34:32;3.92;;;2.30;;
24567;SDS011;12731;52.182;8.716;2023-02-28T13:37:45;2.42;;;2.17;;
24567;SDS011;12731;52.182;8.716;2023-02-28T13:55:46;5.78;;;2.20;;
24567;SDS011;12731;52.182;8.716;2023-02-28T14:04:12;3.28;;;1.77;;
24567;SDS011;12731;52.182;8.716;2023-02-28T14:06:48;5.72;;;2.03;;
24567;SDS011;12731;52.182;8.716;2023-02-28T14:09:32;4.10;;;2.08;;
24567;SDS011;12731;52.182;8.716;2023-02-28T14:15:24;2.50;;;2.00;;
24567;SDS011;12731;52.182;8.716;2023-02-28T14:18:03;2.65;;;1.60;;
24567;SDS011;12731;52.182;8.716;2023-02-28T14:20:37;3.50;;;2.05;;
24567;SDS011;12731;52.182;8.716;2023-02-28T14:23:08;3.63;;;1.85;;
24567;SDS011;12731;52.182;8.716;2023-02-28T14:25:55;2.83;;;1.95;;
24567;SDS011;12731;52.182;8.716;2023-02-28T14:31:15;2.53;;;1.63;;
24567;SDS011;12731;52.182;8.716;2023-02-28T14:33:50;2.95;;;1.83;;
24567;SDS011;12731;52.182;8.716;2023-02-28T14:36:26;2.70;;;1.90;;
24567;SDS011;12731;52.182;8.716;2023-02-28T14:38:57;4.18;;;2.30;;
24567;SDS011;12731;52.182;8.716;2023-02-28T14:41:33;4.45;;;2.10;;
24567;SDS011;12731;52.182;8.716;2023-02-28T14:44:11;2.80;;;2.00;;
24567;SDS011;12731;52.182;8.716;2023-02-28T14:46:42;2.67;;;1.83;;
24567;SDS011;12731;52.182;8.716;2023-02-28T14:49:17;3.40;;;1.60;;
24567;SDS011;12731;52.182;8.716;2023-02-28T14:51:48;2.13;;;1.70;;
24567;SDS011;12731;52.182;8.716;2023-02-28T14:54:16;4.60;;;1.95;;
24567;SDS011;12731;52.182;8.716;2023-02-28T14:56:49;3.70;;;1.90;;
24567;SDS011;12731;52.182;8.716;2023-02-28T14:59:27;3.13;;;1.90;;
24567;SDS011;12731;52.182;8.716;2023-02-28T15:02:16;3.88;;;2.17;;
24567;SDS011;12731;52.182;8.716;2023-02-28T15:04:51;3.60;;;2.25;;
24567;SDS011;12731;52.182;8.716;2023-02-28T15:07:22;2.80;;;2.15;;
24567;SDS011;12731;52.182;8.716;2023-02-28T15:10:09;3.85;;;2.03;;
24567;SDS011;12731;52.182;8.716;2023-02-28T15:12:36;3.30;;;2.17;;
24567;SDS011;12731;52.182;8.716;2023-02-28T15:15:03;4.63;;;2.10;;
24567;SDS011;12731;52.182;8.716;2023-02-28T15:17:29;4.05;;;2.08;;
24567;SDS011;12731;52.182;8.716;2023-02-28T15:19:56;3.13;;;1.90;;
24567;SDS011;12731;52.182;8.716;2023-02-28T15:22:31;3.47;;;1.95;;
24567;SDS011;12731;52.182;8.716;2023-02-28T15:25:02;6.07;;;2.80;;
24567;SDS011;12731;52.182;8.716;2023-02-28T15:27:31;3.30;;;1.95;;
24567;SDS011;12731;52.182;8.716;2023-02-28T15:29:59;4.82;;;2.67;;
24567;SDS011;12731;52.182;8.716;2023-02-28T15:32:34;3.80;;;2.40;;
24567;SDS011;12731;52.182;8.716;2023-02-28T15:41:03;5.35;;;2.63;;
24567;SDS011;12731;52.182;8.716;2023-02-28T15:43:37;5.53;;;2.47;;
24567;SDS011;12731;52.182;8.716;2023-02-28T15:46:06;3.65;;;2.55;;
24567;SDS011;12731;52.182;8.716;2023-02-28T15:48:35;2.85;;;2.28;;
24567;SDS011;12731;52.182;8.716;2023-02-28T15:53:33;3.75;;;2.50;;
24567;SDS011;12731;52.182;8.716;2023-02-28T15:56:04;7.50;;;2.53;;
24567;SDS011;12731;52.182;8.716;2023-02-28T15:58:33;3.92;;;2.13;;
24567;SDS011;12731;52.182;8.716;2023-02-28T16:01:05;6.00;;;2.67;;
24567;SDS011;12731;52.182;8.716;2023-02-28T16:03:41;4.53;;;2.42;;
24567;SDS011;12731;52.182;8.716;2023-02-28T16:08:42;3.63;;;2.33;;
24567;SDS011;12731;52.182;8.716;2023-02-28T16:11:09;4.43;;;2.55;;
24567;SDS011;12731;52.182;8.716;2023-02-28T16:13:36;5.20;;;2.45;;
24567;SDS011;12731;52.182;8.716;2023-02-28T16:16:03;3.95;;;2.40;;
24567;SDS011;12731;52.182;8.716;2023-02-28T16:18:29;4.63;;;2.30;;
24567;SDS011;12731;52.182;8.716;2023-02-28T16:20:59;3.53;;;2.47;;
24567;SDS011;12731;52.182;8.716;2023-02-28T16:23:26;3.20;;;2.30;;
24567;SDS011;12731;52.182;8.716;2023-02-28T16:25:52;5.28;;;2.70;;
24567;SDS011;12731;52.182;8.716;2023-02-28T16:28:24;5.03;;;2.60;;
24567;SDS011;12731;52.182;8.716;2023-02-28T16:30:55;6.18;;;2.63;;
24567;SDS011;12731;52.182;8.716;2023-02-28T16:33:22;4.70;;;2.30;;
24567;SDS011;12731;52.182;8.716;2023-02-28T16:35:49;3.30;;;2.50;;
24567;SDS011;12731;52.182;8.716;2023-02-28T16:38:15;4.68;;;2.40;;
24567;SDS011;12731;52.182;8.716;2023-02-28T16:40:42;4.35;;;2.70;;
24567;SDS011;12731;52.182;8.716;2023-02-28T16:43:10;4.85;;;2.63;;
24567;SDS011;12731;52.182;8.716;2023-02-28T16:48:08;5.05;;;2.55;;
24567;SDS011;12731;52.182;8.716;2023-02-28T16:50:38;5.43;;;3.20;;
24567;SDS011;12731;52.182;8.716;2023-02-28T16:53:04;5.68;;;3.15;;
24567;SDS011;12731;52.182;8.716;2023-02-28T16:55:31;4.35;;;2.60;;
24567;SDS011;12731;52.182;8.716;2023-02-28T16:57:58;6.57;;;3.40;;
24567;SDS011;12731;52.182;8.716;2023-02-28T17:00:26;5.82;;;3.30;;
24567;SDS011;12731;52.182;8.716;2023-02-28T17:02:54;5.05;;;3.40;;
24567;SDS011;12731;52.182;8.716;2023-02-28T17:05:21;5.35;;;3.50;;
24567;SDS011;12731;52.182;8.716;2023-02-28T17:07:48;4.10;;;3.22;;
24567;SDS011;12731;52.182;8.716;2023-02-28T17:10:22;6.00;;;3.80;;
24567;SDS011;12731;52.182;8.716;2023-02-28T17:12:50;4.88;;;3.70;;
24567;SDS011;12731;52.182;8.716;2023-02-28T17:15:18;7.13;;;3.63;;